createdAt,value
2019-05-13T00:01:19.951Z,91.90
2019-05-13T00:06:23.850Z,92.30
2019-05-13T00:11:25.633Z,92.20
2019-05-13T00:16:27.154Z,92.20
2019-05-13T00:21:28.450Z,92.30
2019-05-13T00:26:33.762Z,92.60
2019-05-13T00:31:36.882Z,92.60
2019-05-13T00:36:38.667Z,92.90
2019-05-13T00:41:40.182Z,93.00
2019-05-13T00:46:45.008Z,93.10
2019-05-13T00:51:46.296Z,93.20
2019-05-13T00:56:47.559Z,93.40
2019-05-13T01:01:48.893Z,93.60
2019-05-13T01:06:50.876Z,93.80
2019-05-13T01:11:53.739Z,93.90
2019-05-13T01:16:56.731Z,93.90
2019-05-13T01:21:57.995Z,94.00
2019-05-13T01:26:59.508Z,94.00
2019-05-13T01:32:01.228Z,94.10
2019-05-13T01:37:04.430Z,94.50
2019-05-13T01:42:06.169Z,94.40
2019-05-13T01:47:07.541Z,94.50
2019-05-13T01:52:13.672Z,94.80
2019-05-13T01:57:16.055Z,94.70
2019-05-13T02:02:18.272Z,94.70
2019-05-13T02:07:19.952Z,94.80
2019-05-13T02:12:21.254Z,94.80
2019-05-13T02:17:23.429Z,94.90
2019-05-13T02:22:25.222Z,94.80
2019-05-13T02:27:26.607Z,94.80
2019-05-13T02:32:27.959Z,94.90
2019-05-13T02:37:31.000Z,95.10
2019-05-13T02:42:32.964Z,95.20
2019-05-13T02:47:34.637Z,95.10
2019-05-13T02:52:36.025Z,95.50
2019-05-13T02:57:37.833Z,95.80
2019-05-13T03:02:39.187Z,95.90
2019-05-13T03:07:42.554Z,95.90
2019-05-13T03:12:43.953Z,96.10
2019-05-13T03:17:53.171Z,96.20
2019-05-13T03:22:54.664Z,96.10
2019-05-13T03:27:55.982Z,96.60
2019-05-13T03:33:02.049Z,96.50
2019-05-13T03:38:03.275Z,96.70
2019-05-13T03:43:07.640Z,96.70
2019-05-13T03:48:12.224Z,96.60
2019-05-13T03:53:15.577Z,96.50
2019-05-13T03:58:17.355Z,96.40
2019-05-13T04:03:22.830Z,96.40
2019-05-13T04:08:24.391Z,96.40
2019-05-13T04:13:26.303Z,96.70
2019-05-13T04:18:27.872Z,96.90
2019-05-13T04:23:32.039Z,96.80
2019-05-13T04:28:34.360Z,96.70
2019-05-13T04:33:37.146Z,96.80
2019-05-13T04:38:38.536Z,96.90
2019-05-13T04:43:43.608Z,97.00
2019-05-13T04:48:45.753Z,97.10
2019-05-13T04:53:47.243Z,97.30
2019-05-13T04:58:48.527Z,97.40
2019-05-13T05:04:11.376Z,97.50
2019-05-13T05:10:13.234Z,97.40
2019-05-13T05:15:35.552Z,97.40
2019-05-13T05:20:55.702Z,97.20
2019-05-13T05:26:26.397Z,97.20
2019-05-13T05:32:12.238Z,97.20
2019-05-13T05:37:52.494Z,97.10
2019-05-13T05:42:58.017Z,97.10
2019-05-13T05:48:04.165Z,97.10
2019-05-13T05:53:06.420Z,97.10
2019-05-13T05:58:08.704Z,97.00
2019-05-13T06:03:13.813Z,96.70
2019-05-13T06:08:17.792Z,96.70
2019-05-13T06:13:21.480Z,96.30
2019-05-13T06:18:23.912Z,95.90
2019-05-13T06:23:25.886Z,95.60
2019-05-13T06:28:27.151Z,95.10
2019-05-13T06:33:28.605Z,94.70
2019-05-13T06:38:31.619Z,94.10
2019-05-13T06:43:33.060Z,93.50
2019-05-13T06:48:34.309Z,93.00
2019-05-13T06:53:35.594Z,91.90
2019-05-13T06:58:38.397Z,91.00
2019-05-13T07:03:42.019Z,90.60
2019-05-13T07:08:47.035Z,90.40
2019-05-13T07:13:51.665Z,88.90
2019-05-13T07:18:59.517Z,88.20
2019-05-13T07:24:02.250Z,86.20
2019-05-13T07:29:07.928Z,85.60
2019-05-13T07:34:12.139Z,84.70
2019-05-13T07:39:15.378Z,83.40
2019-05-13T07:44:17.508Z,81.70
2019-05-13T07:49:18.894Z,80.50
2019-05-13T07:54:22.634Z,76.80
2019-05-13T07:59:23.985Z,74.10
2019-05-13T08:04:26.716Z,71.20
2019-05-13T08:09:32.182Z,70.10
2019-05-13T08:14:34.456Z,67.90
2019-05-13T08:19:41.239Z,66.50
2019-05-13T08:24:42.656Z,65.20
2019-05-13T08:29:45.750Z,65.20
2019-05-13T08:34:52.559Z,64.80
2019-05-13T08:39:52.347Z,62.30
2019-05-13T08:45:01.877Z,61.60
2019-05-13T08:50:11.921Z,60.70
2019-05-13T08:55:16.158Z,60.10
2019-05-13T09:00:42.687Z,60.10
2019-05-13T09:05:46.156Z,59.00
2019-05-13T09:11:11.968Z,57.60
2019-05-13T09:16:13.343Z,57.10
2019-05-13T09:21:15.391Z,56.70
2019-05-13T09:26:16.700Z,57.50
2019-05-13T09:31:22.102Z,54.70
2019-05-13T09:36:25.250Z,53.70
2019-05-13T09:41:27.314Z,53.50
2019-05-13T09:46:32.623Z,52.70
2019-05-13T09:51:33.888Z,51.70
2019-05-13T09:56:35.670Z,50.30
2019-05-13T10:01:36.923Z,50.40
2019-05-13T10:06:41.973Z,49.90
2019-05-13T10:11:41.671Z,47.40
2019-05-13T10:16:42.938Z,47.10
2019-05-13T10:21:46.365Z,47.60
2019-05-13T10:26:48.120Z,47.70
2019-05-13T10:31:54.907Z,47.60
2019-05-13T10:36:57.501Z,45.50
2019-05-13T10:42:03.593Z,45.70
2019-05-13T10:47:06.352Z,44.70
2019-05-13T10:52:12.201Z,44.70
2019-05-13T10:57:16.082Z,44.30
2019-05-13T11:02:17.732Z,42.90
2019-05-13T11:07:22.608Z,42.30
2019-05-13T11:12:33.433Z,42.00
2019-05-13T11:17:34.959Z,40.80
2019-05-13T11:22:37.775Z,41.60
2019-05-13T11:27:41.926Z,42.80
2019-05-13T11:32:45.232Z,42.10
2019-05-13T11:37:46.632Z,42.00
2019-05-13T11:42:47.949Z,42.30
2019-05-13T11:47:51.971Z,41.80
2019-05-13T11:52:57.172Z,41.40
2019-05-13T11:57:58.874Z,41.30
2019-05-13T12:03:04.256Z,41.10
2019-05-13T12:08:03.773Z,41.10
2019-05-13T12:13:05.185Z,41.10
2019-05-13T12:18:11.655Z,41.10
2019-05-13T12:23:15.133Z,41.50
2019-05-13T12:28:16.931Z,40.60
2019-05-13T12:33:22.708Z,40.30
2019-05-13T12:38:23.285Z,40.70
2019-05-13T12:43:24.562Z,40.50
2019-05-13T12:48:26.052Z,41.30
2019-05-13T12:53:27.334Z,41.30
2019-05-13T12:58:28.586Z,40.60
2019-05-13T13:03:32.133Z,40.60
2019-05-13T13:08:43.046Z,39.80
2019-05-13T13:18:43.479Z,40.30
2019-05-13T13:23:46.745Z,39.90
2019-05-13T13:28:48.160Z,40.10
2019-05-13T13:33:55.150Z,40.70
2019-05-13T13:38:57.261Z,39.80
2019-05-13T13:44:04.654Z,40.60
2019-05-13T13:49:02.186Z,40.60
2019-05-13T13:54:03.694Z,41.40
2019-05-13T13:59:05.404Z,41.40
2019-05-13T14:04:06.713Z,41.50
2019-05-13T14:09:08.165Z,41.30
2019-05-13T14:14:09.601Z,41.60
2019-05-13T14:19:10.882Z,42.20
2019-05-13T14:24:22.828Z,42.30
2019-05-13T14:29:37.474Z,41.80
2019-05-13T14:34:27.351Z,41.20
2019-05-13T14:39:28.748Z,41.00
2019-05-13T14:44:32.455Z,39.20
2019-05-13T14:49:33.534Z,39.10
2019-05-13T14:54:34.928Z,38.50
2019-05-13T14:59:36.242Z,38.70
2019-05-13T15:04:38.347Z,39.20
2019-05-13T15:09:41.955Z,38.60
2019-05-13T15:14:43.099Z,38.70
2019-05-13T15:19:44.703Z,40.10
2019-05-13T15:24:46.640Z,41.30
2019-05-13T15:29:51.596Z,43.60
2019-05-13T15:34:52.840Z,44.70
2019-05-13T15:39:54.950Z,43.50
2019-05-13T15:44:56.302Z,43.00
2019-05-13T15:50:02.423Z,46.00
2019-05-13T15:55:05.320Z,46.50
2019-05-13T16:00:09.534Z,46.40
2019-05-13T16:05:12.027Z,46.30
2019-05-13T16:10:16.347Z,47.30
2019-05-13T16:15:17.891Z,47.80
2019-05-13T16:20:21.405Z,47.90
2019-05-13T16:25:23.028Z,48.20
2019-05-13T16:30:24.845Z,48.40
2019-05-13T16:35:26.145Z,48.90
2019-05-13T16:40:27.483Z,49.00
2019-05-13T16:45:31.324Z,49.00
2019-05-13T16:50:32.134Z,49.90
2019-05-13T16:55:33.416Z,50.50
2019-05-13T17:00:35.086Z,51.00
2019-05-13T17:05:36.441Z,51.00
2019-05-13T17:10:37.782Z,51.10
2019-05-13T17:15:41.538Z,50.80
2019-05-13T17:20:42.835Z,51.10
2019-05-13T17:25:44.645Z,51.30
2019-05-13T17:30:46.133Z,51.60
2019-05-13T17:35:47.690Z,52.10
2019-05-13T17:40:50.051Z,52.20
2019-05-13T17:45:52.501Z,52.70
2019-05-13T17:50:55.930Z,53.20
2019-05-13T17:55:57.351Z,53.60
2019-05-13T18:00:58.647Z,54.20
2019-05-13T18:06:02.046Z,54.50
2019-05-13T18:11:03.595Z,55.00
2019-05-13T18:16:05.098Z,55.50
2019-05-13T18:21:06.394Z,56.40
2019-05-13T18:26:07.846Z,57.30
2019-05-13T18:31:09.234Z,57.80
2019-05-13T18:36:11.993Z,58.40
2019-05-13T18:41:13.777Z,59.10
2019-05-13T18:46:15.037Z,59.60
2019-05-13T18:51:21.136Z,60.30
2019-05-13T18:56:22.717Z,60.90
2019-05-13T19:01:24.226Z,62.40
2019-05-13T19:06:25.495Z,63.00
2019-05-13T19:11:51.417Z,63.80
2019-05-13T19:16:52.562Z,64.50
2019-05-13T19:21:55.026Z,65.50
2019-05-13T19:26:58.584Z,65.80
2019-05-13T19:32:01.769Z,66.40
2019-05-13T19:37:03.777Z,66.70
2019-05-13T19:42:05.145Z,67.30
2019-05-13T19:47:06.413Z,67.70
2019-05-13T19:52:07.912Z,68.30
2019-05-13T19:57:11.767Z,69.10
2019-05-13T20:02:12.586Z,69.90
2019-05-13T20:07:17.690Z,70.20
2019-05-13T20:12:21.222Z,70.60
2019-05-13T20:17:22.793Z,70.90
2019-05-13T20:22:25.689Z,71.70
2019-05-13T20:27:26.971Z,71.80
2019-05-13T20:32:28.286Z,72.10
2019-05-13T20:37:32.049Z,72.10
2019-05-13T20:42:33.275Z,72.30
2019-05-13T20:47:34.675Z,72.30
2019-05-13T20:52:36.080Z,72.90
2019-05-13T20:57:38.667Z,73.40
2019-05-13T21:02:42.955Z,74.80
2019-05-13T21:07:44.264Z,74.40
2019-05-13T21:12:45.921Z,75.50
2019-05-13T21:17:48.621Z,75.30
2019-05-13T21:22:52.049Z,75.90
2019-05-13T21:27:53.511Z,77.00
2019-05-13T21:32:54.775Z,77.20
2019-05-13T21:37:56.045Z,77.50
2019-05-13T21:42:59.410Z,78.00
2019-05-13T21:48:03.040Z,78.50
2019-05-13T21:53:04.421Z,78.40
2019-05-13T21:58:05.743Z,78.70
2019-05-13T22:03:11.438Z,79.60
2019-05-13T22:08:12.537Z,79.80
2019-05-13T22:13:14.003Z,79.70
2019-05-13T22:18:15.310Z,80.10
2019-05-13T22:23:18.471Z,80.10
2019-05-13T22:28:21.948Z,80.30
2019-05-13T22:33:22.953Z,80.50
2019-05-13T22:38:24.262Z,80.50
2019-05-13T22:43:28.544Z,80.90
2019-05-13T22:48:32.698Z,81.20
2019-05-13T22:53:36.797Z,81.20
2019-05-13T22:58:38.380Z,81.30
2019-05-13T23:03:41.215Z,81.50
2019-05-13T23:08:42.778Z,81.30
2019-05-13T23:13:44.378Z,81.40
2019-05-13T23:18:45.764Z,81.60
2019-05-13T23:23:47.175Z,81.60
2019-05-13T23:28:48.772Z,81.50
2019-05-13T23:33:51.098Z,81.80
2019-05-13T23:38:52.389Z,81.80
2019-05-13T23:43:53.652Z,82.20
2019-05-13T23:48:55.355Z,82.00
2019-05-13T23:53:56.611Z,82.20
2019-05-13T23:58:58.161Z,82.40
